Skip Navigation Links
NOAA logo - Click to go to the NOAA homepage
NOAA's National Weather Service
Alaska Aviation Weather Unit
  NWS logo - Click to go to the NWS homepage
Left Navbar Graphic     21 AKDT = 05 GMT

   
NOAA is celebrating 200 years of science, service, and stewardship. Visit the NOAA 200th celebration Web site to learn more.
USA.gov is the U.S. Government's official Web portal to all Federal, state and local government Web resources and services.
Facebook
NWS on Facebook

AAWU Home :: Display TAF Add Bookmark
TAF PATA 262320Z 2700/2724 12006KT P6SM SCT080 SCT180
     FM270500 06006KT P6SM SCT050 SCT100 BKN200=
METAR PATA 262352Z 11006KT 10SM BKN045 BKN180 06/M04 A2961 RMK AO2
     SLP031 T00611039 10072 20022 56002 PNO=

METAR PATA 270052Z 12007KT 10SM SCT045 BKN180 07/M06 A2960 RMK AO2
     SLP027 T00721056 PNO=

METAR PATA 270152Z 12006KT 10SM CLR 07/M05 A2960 RMK AO2 SLP029
 T00721050 PNO=

METAR PATA 270252Z 10010KT 10SM FEW045 FEW090 SCT150 07/M05 A2961
 RMK AO2 SLP032 T00671050 53001 PNO=

METAR PATA 270352Z 10008KT 10SM FEW045 FEW090 SCT160 06/M05 A2962 RMK
     AO2 SLP035 T00561050 PNO=

METAR PATA 270452Z 10008KT 10SM CLR 04/M05 A2964 RMK AO2 SLP039
     T00441050 PNO=


NOAA's National Weather Service
Alaska Aviation Weather Unit
6930 Sand Lake Road
Anchorage, AK 99502-1845
Disclaimer
Credits
Glossary
Privacy Policy
About Us
Career Opportunities
Contact AAWU Internet Services Site last modified: April, 17th 2012